sensor_id;sensor_type;location;lat;lon;timestamp;temperature;humidity
7174;DHT22;3628;48.654;8.932;2023-06-26T00:00:18;21.80;81.50
7174;DHT22;3628;48.654;8.932;2023-06-26T00:02:44;21.80;81.80
7174;DHT22;3628;48.654;8.932;2023-06-26T00:05:10;21.80;82.40
7174;DHT22;3628;48.654;8.932;2023-06-26T00:07:35;21.80;82.30
7174;DHT22;3628;48.654;8.932;2023-06-26T00:10:02;21.80;82.40
7174;DHT22;3628;48.654;8.932;2023-06-26T00:12:28;21.80;82.40
7174;DHT22;3628;48.654;8.932;2023-06-26T00:14:54;21.70;82.50
7174;DHT22;3628;48.654;8.932;2023-06-26T00:17:21;21.70;82.80
7174;DHT22;3628;48.654;8.932;2023-06-26T00:19:47;21.80;83.20
7174;DHT22;3628;48.654;8.932;2023-06-26T00:22:12;21.70;83.10
7174;DHT22;3628;48.654;8.932;2023-06-26T00:24:38;21.50;83.40
7174;DHT22;3628;48.654;8.932;2023-06-26T00:27:03;21.50;84.10
7174;DHT22;3628;48.654;8.932;2023-06-26T00:29:29;21.40;84.10
7174;DHT22;3628;48.654;8.932;2023-06-26T00:31:54;21.40;84.90
7174;DHT22;3628;48.654;8.932;2023-06-26T00:34:20;21.50;85.00
7174;DHT22;3628;48.654;8.932;2023-06-26T00:36:46;21.50;85.10
7174;DHT22;3628;48.654;8.932;2023-06-26T00:39:11;21.60;85.20
7174;DHT22;3628;48.654;8.932;2023-06-26T00:41:37;21.40;85.20
7174;DHT22;3628;48.654;8.932;2023-06-26T00:44:04;21.40;85.80
7174;DHT22;3628;48.654;8.932;2023-06-26T00:46:29;21.40;86.00
7174;DHT22;3628;48.654;8.932;2023-06-26T00:48:58;21.40;85.90
7174;DHT22;3628;48.654;8.932;2023-06-26T00:51:24;21.30;86.70
7174;DHT22;3628;48.654;8.932;2023-06-26T00:53:50;21.10;86.90
7174;DHT22;3628;48.654;8.932;2023-06-26T00:56:18;21.10;87.80
7174;DHT22;3628;48.654;8.932;2023-06-26T00:58:44;21.00;87.90
7174;DHT22;3628;48.654;8.932;2023-06-26T01:01:11;21.10;89.00
7174;DHT22;3628;48.654;8.932;2023-06-26T01:03:41;21.10;88.90
7174;DHT22;3628;48.654;8.932;2023-06-26T01:06:07;21.10;89.40
7174;DHT22;3628;48.654;8.932;2023-06-26T01:08:37;21.20;89.40
7174;DHT22;3628;48.654;8.932;2023-06-26T01:11:03;21.20;89.70
7174;DHT22;3628;48.654;8.932;2023-06-26T01:13:29;21.20;89.60
7174;DHT22;3628;48.654;8.932;2023-06-26T01:15:57;21.20;90.00
7174;DHT22;3628;48.654;8.932;2023-06-26T01:18:25;21.20;90.00
7174;DHT22;3628;48.654;8.932;2023-06-26T01:20:51;21.20;90.00
7174;DHT22;3628;48.654;8.932;2023-06-26T01:26:23;21.20;90.30
7174;DHT22;3628;48.654;8.932;2023-06-26T01:28:53;21.10;90.40
7174;DHT22;3628;48.654;8.932;2023-06-26T01:31:19;21.10;90.50
7174;DHT22;3628;48.654;8.932;2023-06-26T01:33:45;21.00;90.50
7174;DHT22;3628;48.654;8.932;2023-06-26T01:36:11;21.00;90.80
7174;DHT22;3628;48.654;8.932;2023-06-26T01:38:37;21.00;91.00
7174;DHT22;3628;48.654;8.932;2023-06-26T01:41:04;21.00;90.80
7174;DHT22;3628;48.654;8.932;2023-06-26T01:46:49;21.00;91.20
7174;DHT22;3628;48.654;8.932;2023-06-26T01:55:08;20.90;91.90
7174;DHT22;3628;48.654;8.932;2023-06-26T01:57:36;20.90;91.70
7174;DHT22;3628;48.654;8.932;2023-06-26T02:00:03;20.80;92.00
7174;DHT22;3628;48.654;8.932;2023-06-26T02:02:29;20.80;92.20
7174;DHT22;3628;48.654;8.932;2023-06-26T02:04:55;20.80;92.30
7174;DHT22;3628;48.654;8.932;2023-06-26T02:07:20;20.80;92.40
7174;DHT22;3628;48.654;8.932;2023-06-26T02:09:46;20.90;92.50
7174;DHT22;3628;48.654;8.932;2023-06-26T02:12:12;20.80;92.40
7174;DHT22;3628;48.654;8.932;2023-06-26T02:14:37;20.70;92.70
7174;DHT22;3628;48.654;8.932;2023-06-26T02:17:04;20.80;93.00
7174;DHT22;3628;48.654;8.932;2023-06-26T02:19:30;20.80;93.10
7174;DHT22;3628;48.654;8.932;2023-06-26T02:21:55;20.80;93.10
7174;DHT22;3628;48.654;8.932;2023-06-26T02:24:21;20.80;93.20
7174;DHT22;3628;48.654;8.932;2023-06-26T02:26:46;20.80;93.30
7174;DHT22;3628;48.654;8.932;2023-06-26T02:29:12;20.50;93.30
7174;DHT22;3628;48.654;8.932;2023-06-26T02:31:38;20.50;93.90
7174;DHT22;3628;48.654;8.932;2023-06-26T02:34:04;20.50;94.10
7174;DHT22;3628;48.654;8.932;2023-06-26T02:36:29;20.60;94.20
7174;DHT22;3628;48.654;8.932;2023-06-26T02:38:55;20.60;94.30
7174;DHT22;3628;48.654;8.932;2023-06-26T02:41:20;20.50;94.40
7174;DHT22;3628;48.654;8.932;2023-06-26T02:43:46;20.50;94.50
7174;DHT22;3628;48.654;8.932;2023-06-26T02:46:11;20.60;94.70
7174;DHT22;3628;48.654;8.932;2023-06-26T02:48:37;20.60;94.70
7174;DHT22;3628;48.654;8.932;2023-06-26T02:51:02;20.50;94.80
7174;DHT22;3628;48.654;8.932;2023-06-26T02:53:28;20.50;95.20
7174;DHT22;3628;48.654;8.932;2023-06-26T02:55:53;20.50;95.40
7174;DHT22;3628;48.654;8.932;2023-06-26T02:58:19;20.50;95.80
7174;DHT22;3628;48.654;8.932;2023-06-26T03:00:45;20.50;95.60
7174;DHT22;3628;48.654;8.932;2023-06-26T03:03:10;20.30;95.70
7174;DHT22;3628;48.654;8.932;2023-06-26T03:05:38;20.20;96.20
7174;DHT22;3628;48.654;8.932;2023-06-26T03:08:03;20.20;96.50
7174;DHT22;3628;48.654;8.932;2023-06-26T03:10:29;20.30;96.70
7174;DHT22;3628;48.654;8.932;2023-06-26T03:12:55;20.10;96.70
7174;DHT22;3628;48.654;8.932;2023-06-26T03:15:20;20.10;97.20
7174;DHT22;3628;48.654;8.932;2023-06-26T03:17:46;20.20;97.30
7174;DHT22;3628;48.654;8.932;2023-06-26T03:20:11;20.00;97.50
7174;DHT22;3628;48.654;8.932;2023-06-26T03:22:37;20.00;98.10
7174;DHT22;3628;48.654;8.932;2023-06-26T03:25:03;20.00;98.30
7174;DHT22;3628;48.654;8.932;2023-06-26T03:27:28;20.00;98.70
7174;DHT22;3628;48.654;8.932;2023-06-26T03:29:54;20.10;99.00
7174;DHT22;3628;48.654;8.932;2023-06-26T03:32:19;20.20;98.90
7174;DHT22;3628;48.654;8.932;2023-06-26T03:34:45;20.20;98.90
7174;DHT22;3628;48.654;8.932;2023-06-26T03:37:11;20.10;99.00
7174;DHT22;3628;48.654;8.932;2023-06-26T03:39:36;20.20;99.20
7174;DHT22;3628;48.654;8.932;2023-06-26T03:42:02;20.10;99.40
7174;DHT22;3628;48.654;8.932;2023-06-26T03:44:28;20.20;99.50
7174;DHT22;3628;48.654;8.932;2023-06-26T03:46:53;20.20;99.60
7174;DHT22;3628;48.654;8.932;2023-06-26T03:49:19;20.20;99.70
7174;DHT22;3628;48.654;8.932;2023-06-26T03:51:45;20.00;99.60
7174;DHT22;3628;48.654;8.932;2023-06-26T03:54:11;19.80;99.90
7174;DHT22;3628;48.654;8.932;2023-06-26T03:56:36;19.70;99.90
7174;DHT22;3628;48.654;8.932;2023-06-26T03:59:02;19.60;99.90
7174;DHT22;3628;48.654;8.932;2023-06-26T04:01:28;19.50;99.90
7174;DHT22;3628;48.654;8.932;2023-06-26T04:03:54;19.50;99.90
7174;DHT22;3628;48.654;8.932;2023-06-26T04:06:19;19.60;99.90
7174;DHT22;3628;48.654;8.932;2023-06-26T04:08:45;19.70;99.90
7174;DHT22;3628;48.654;8.932;2023-06-26T04:11:10;19.70;99.90
7174;DHT22;3628;48.654;8.932;2023-06-26T04:13:36;19.60;99.90
7174;DHT22;3628;48.654;8.932;2023-06-26T04:16:01;19.60;99.90
7174;DHT22;3628;48.654;8.932;2023-06-26T04:18:27;19.60;99.90
7174;DHT22;3628;48.654;8.932;2023-06-26T04:21:12;19.70;99.90
7174;DHT22;3628;48.654;8.932;2023-06-26T04:23:40;19.90;99.90
7174;DHT22;3628;48.654;8.932;2023-06-26T04:26:06;20.20;99.90
7174;DHT22;3628;48.654;8.932;2023-06-26T04:28:32;20.60;99.90
7174;DHT22;3628;48.654;8.932;2023-06-26T04:30:58;20.70;99.90
7174;DHT22;3628;48.654;8.932;2023-06-26T04:33:25;20.80;99.90
7174;DHT22;3628;48.654;8.932;2023-06-26T04:35:51;20.70;99.90
7174;DHT22;3628;48.654;8.932;2023-06-26T04:38:17;20.70;99.90
7174;DHT22;3628;48.654;8.932;2023-06-26T04:40:42;20.60;99.90
7174;DHT22;3628;48.654;8.932;2023-06-26T04:43:08;20.70;99.90
7174;DHT22;3628;48.654;8.932;2023-06-26T04:45:33;20.70;99.90
7174;DHT22;3628;48.654;8.932;2023-06-26T04:47:59;20.70;99.90
7174;DHT22;3628;48.654;8.932;2023-06-26T04:50:25;20.70;99.90
7174;DHT22;3628;48.654;8.932;2023-06-26T04:52:51;20.70;99.90
7174;DHT22;3628;48.654;8.932;2023-06-26T04:55:17;20.80;99.90
7174;DHT22;3628;48.654;8.932;2023-06-26T04:57:42;20.90;99.90
7174;DHT22;3628;48.654;8.932;2023-06-26T05:00:08;20.90;99.90
7174;DHT22;3628;48.654;8.932;2023-06-26T05:02:36;21.00;99.90
7174;DHT22;3628;48.654;8.932;2023-06-26T05:05:01;21.10;99.90
7174;DHT22;3628;48.654;8.932;2023-06-26T05:07:27;21.20;99.90
7174;DHT22;3628;48.654;8.932;2023-06-26T05:09:52;21.30;99.90
7174;DHT22;3628;48.654;8.932;2023-06-26T05:12:18;21.40;99.90
7174;DHT22;3628;48.654;8.932;2023-06-26T05:14:43;21.50;99.90
7174;DHT22;3628;48.654;8.932;2023-06-26T05:17:09;21.50;99.90
7174;DHT22;3628;48.654;8.932;2023-06-26T05:19:35;21.60;99.90
7174;DHT22;3628;48.654;8.932;2023-06-26T05:22:01;21.60;99.90
7174;DHT22;3628;48.654;8.932;2023-06-26T05:24:37;21.70;99.90
7174;DHT22;3628;48.654;8.932;2023-06-26T05:27:03;21.90;99.90
7174;DHT22;3628;48.654;8.932;2023-06-26T05:29:31;21.90;99.90
7174;DHT22;3628;48.654;8.932;2023-06-26T05:31:57;21.90;99.90
7174;DHT22;3628;48.654;8.932;2023-06-26T05:34:23;22.00;99.90
7174;DHT22;3628;48.654;8.932;2023-06-26T05:36:51;22.10;99.90
7174;DHT22;3628;48.654;8.932;2023-06-26T05:39:17;22.20;99.90
7174;DHT22;3628;48.654;8.932;2023-06-26T05:41:46;22.30;99.90
7174;DHT22;3628;48.654;8.932;2023-06-26T05:44:12;22.50;99.90
7174;DHT22;3628;48.654;8.932;2023-06-26T05:46:38;22.50;99.90
7174;DHT22;3628;48.654;8.932;2023-06-26T05:49:03;22.70;99.90
7174;DHT22;3628;48.654;8.932;2023-06-26T05:51:29;22.80;99.90
7174;DHT22;3628;48.654;8.932;2023-06-26T05:53:55;22.90;99.90
7174;DHT22;3628;48.654;8.932;2023-06-26T05:56:21;23.00;99.90
7174;DHT22;3628;48.654;8.932;2023-06-26T05:58:47;23.10;99.80
7174;DHT22;3628;48.654;8.932;2023-06-26T06:01:13;23.20;99.30
7174;DHT22;3628;48.654;8.932;2023-06-26T06:03:39;23.30;98.80
7174;DHT22;3628;48.654;8.932;2023-06-26T06:06:05;23.30;98.50
7174;DHT22;3628;48.654;8.932;2023-06-26T06:08:31;23.40;98.30
7174;DHT22;3628;48.654;8.932;2023-06-26T06:10:57;23.50;97.80
7174;DHT22;3628;48.654;8.932;2023-06-26T06:13:22;23.60;97.30
7174;DHT22;3628;48.654;8.932;2023-06-26T06:15:48;23.60;97.20
7174;DHT22;3628;48.654;8.932;2023-06-26T06:18:14;23.60;97.00
7174;DHT22;3628;48.654;8.932;2023-06-26T06:20:39;23.80;96.40
7174;DHT22;3628;48.654;8.932;2023-06-26T06:23:05;23.90;96.50
7174;DHT22;3628;48.654;8.932;2023-06-26T06:25:31;24.10;96.10
7174;DHT22;3628;48.654;8.932;2023-06-26T06:27:57;24.20;95.60
7174;DHT22;3628;48.654;8.932;2023-06-26T06:30:22;24.20;95.50
7174;DHT22;3628;48.654;8.932;2023-06-26T06:32:48;24.40;95.30
7174;DHT22;3628;48.654;8.932;2023-06-26T06:35:19;24.40;95.00
7174;DHT22;3628;48.654;8.932;2023-06-26T06:37:45;24.50;94.90
7174;DHT22;3628;48.654;8.932;2023-06-26T06:40:11;24.60;94.60
7174;DHT22;3628;48.654;8.932;2023-06-26T06:42:37;24.70;94.60
7174;DHT22;3628;48.654;8.932;2023-06-26T06:45:03;24.70;94.70
7174;DHT22;3628;48.654;8.932;2023-06-26T06:47:29;24.90;94.40
7174;DHT22;3628;48.654;8.932;2023-06-26T06:49:55;25.10;94.00
7174;DHT22;3628;48.654;8.932;2023-06-26T06:52:20;25.10;93.60
7174;DHT22;3628;48.654;8.932;2023-06-26T06:57:19;25.30;93.20
7174;DHT22;3628;48.654;8.932;2023-06-26T06:59:45;25.40;93.10
7174;DHT22;3628;48.654;8.932;2023-06-26T07:02:10;25.60;93.00
7174;DHT22;3628;48.654;8.932;2023-06-26T07:04:36;25.80;92.50
7174;DHT22;3628;48.654;8.932;2023-06-26T07:07:01;25.80;92.40
7174;DHT22;3628;48.654;8.932;2023-06-26T07:09:27;25.80;92.40
7174;DHT22;3628;48.654;8.932;2023-06-26T07:11:52;25.80;92.00
7174;DHT22;3628;48.654;8.932;2023-06-26T07:14:18;25.90;92.10
7174;DHT22;3628;48.654;8.932;2023-06-26T07:16:43;26.20;92.00
7174;DHT22;3628;48.654;8.932;2023-06-26T07:19:09;26.40;92.10
7174;DHT22;3628;48.654;8.932;2023-06-26T07:21:34;26.90;91.70
7174;DHT22;3628;48.654;8.932;2023-06-26T07:24:00;27.00;90.50
7174;DHT22;3628;48.654;8.932;2023-06-26T07:26:25;27.00;90.50
7174;DHT22;3628;48.654;8.932;2023-06-26T07:28:51;27.10;90.20
7174;DHT22;3628;48.654;8.932;2023-06-26T07:31:16;27.20;90.50
7174;DHT22;3628;48.654;8.932;2023-06-26T07:33:42;27.20;89.80
7174;DHT22;3628;48.654;8.932;2023-06-26T07:36:07;27.40;89.60
7174;DHT22;3628;48.654;8.932;2023-06-26T07:38:33;27.50;89.30
7174;DHT22;3628;48.654;8.932;2023-06-26T07:40:58;27.60;88.40
7174;DHT22;3628;48.654;8.932;2023-06-26T07:43:24;27.70;88.10
7174;DHT22;3628;48.654;8.932;2023-06-26T07:45:50;27.90;88.50
7174;DHT22;3628;48.654;8.932;2023-06-26T07:48:16;28.10;86.80
7174;DHT22;3628;48.654;8.932;2023-06-26T07:50:42;28.20;84.40
7174;DHT22;3628;48.654;8.932;2023-06-26T07:53:08;28.40;84.60
7174;DHT22;3628;48.654;8.932;2023-06-26T07:55:33;28.40;82.20
7174;DHT22;3628;48.654;8.932;2023-06-26T07:57:59;28.80;79.90
7174;DHT22;3628;48.654;8.932;2023-06-26T08:00:26;29.10;78.10
7174;DHT22;3628;48.654;8.932;2023-06-26T08:02:52;29.10;77.50
7174;DHT22;3628;48.654;8.932;2023-06-26T08:05:17;29.20;75.60
7174;DHT22;3628;48.654;8.932;2023-06-26T08:07:43;29.60;74.90
7174;DHT22;3628;48.654;8.932;2023-06-26T08:10:09;29.60;70.10
7174;DHT22;3628;48.654;8.932;2023-06-26T08:12:34;29.70;69.30
7174;DHT22;3628;48.654;8.932;2023-06-26T08:15:02;29.80;67.20
7174;DHT22;3628;48.654;8.932;2023-06-26T08:17:28;30.00;68.00
7174;DHT22;3628;48.654;8.932;2023-06-26T08:19:54;30.20;67.30
7174;DHT22;3628;48.654;8.932;2023-06-26T08:22:19;30.30;65.50
7174;DHT22;3628;48.654;8.932;2023-06-26T08:24:45;30.40;64.30
7174;DHT22;3628;48.654;8.932;2023-06-26T08:27:10;30.20;64.10
7174;DHT22;3628;48.654;8.932;2023-06-26T08:29:36;30.30;63.40
7174;DHT22;3628;48.654;8.932;2023-06-26T08:32:01;30.50;62.20
7174;DHT22;3628;48.654;8.932;2023-06-26T08:34:27;30.70;62.40
7174;DHT22;3628;48.654;8.932;2023-06-26T08:36:53;31.00;62.00
7174;DHT22;3628;48.654;8.932;2023-06-26T08:39:18;31.40;61.30
7174;DHT22;3628;48.654;8.932;2023-06-26T08:41:44;31.40;60.20
7174;DHT22;3628;48.654;8.932;2023-06-26T08:44:10;31.50;58.50
7174;DHT22;3628;48.654;8.932;2023-06-26T08:46:36;31.50;57.70
7174;DHT22;3628;48.654;8.932;2023-06-26T08:49:08;31.50;57.80
7174;DHT22;3628;48.654;8.932;2023-06-26T08:51:40;31.60;57.90
7174;DHT22;3628;48.654;8.932;2023-06-26T08:54:11;31.70;57.90
7174;DHT22;3628;48.654;8.932;2023-06-26T08:56:42;32.00;57.10
7174;DHT22;3628;48.654;8.932;2023-06-26T08:59:10;32.20;56.50
7174;DHT22;3628;48.654;8.932;2023-06-26T09:01:40;31.90;56.60
7174;DHT22;3628;48.654;8.932;2023-06-26T09:04:06;32.00;55.90
7174;DHT22;3628;48.654;8.932;2023-06-26T09:06:32;32.10;54.80
7174;DHT22;3628;48.654;8.932;2023-06-26T09:08:58;32.50;54.20
7174;DHT22;3628;48.654;8.932;2023-06-26T09:11:23;32.50;53.20
7174;DHT22;3628;48.654;8.932;2023-06-26T09:13:49;32.70;51.50
7174;DHT22;3628;48.654;8.932;2023-06-26T09:16:15;32.90;51.80
7174;DHT22;3628;48.654;8.932;2023-06-26T09:18:41;33.20;51.70
7174;DHT22;3628;48.654;8.932;2023-06-26T09:21:10;33.60;51.70
7174;DHT22;3628;48.654;8.932;2023-06-26T09:23:36;33.70;50.90
7174;DHT22;3628;48.654;8.932;2023-06-26T09:26:05;33.70;51.50
7174;DHT22;3628;48.654;8.932;2023-06-26T09:28:35;33.90;51.10
7174;DHT22;3628;48.654;8.932;2023-06-26T09:31:05;33.50;50.90
7174;DHT22;3628;48.654;8.932;2023-06-26T09:33:35;33.30;50.60
7174;DHT22;3628;48.654;8.932;2023-06-26T09:36:19;33.30;51.00
7174;DHT22;3628;48.654;8.932;2023-06-26T09:38:47;33.30;50.80
7174;DHT22;3628;48.654;8.932;2023-06-26T09:41:16;33.40;50.60
7174;DHT22;3628;48.654;8.932;2023-06-26T09:43:49;33.40;49.90
7174;DHT22;3628;48.654;8.932;2023-06-26T09:46:24;33.40;49.10
7174;DHT22;3628;48.654;8.932;2023-06-26T09:48:57;33.40;49.30
7174;DHT22;3628;48.654;8.932;2023-06-26T09:51:22;33.70;49.50
7174;DHT22;3628;48.654;8.932;2023-06-26T09:53:48;34.00;49.40
7174;DHT22;3628;48.654;8.932;2023-06-26T09:56:17;33.90;48.70
7174;DHT22;3628;48.654;8.932;2023-06-26T09:58:44;33.90;48.90
7174;DHT22;3628;48.654;8.932;2023-06-26T10:01:09;34.30;48.70
7174;DHT22;3628;48.654;8.932;2023-06-26T10:03:35;34.70;48.60
7174;DHT22;3628;48.654;8.932;2023-06-26T10:06:02;34.30;48.00
7174;DHT22;3628;48.654;8.932;2023-06-26T10:08:28;34.40;48.70
7174;DHT22;3628;48.654;8.932;2023-06-26T10:10:55;34.00;48.30
7174;DHT22;3628;48.654;8.932;2023-06-26T10:13:25;33.30;49.10
7174;DHT22;3628;48.654;8.932;2023-06-26T10:15:53;33.00;49.70
7174;DHT22;3628;48.654;8.932;2023-06-26T10:18:21;33.00;50.90
7174;DHT22;3628;48.654;8.932;2023-06-26T10:20:50;32.60;50.60
7174;DHT22;3628;48.654;8.932;2023-06-26T10:23:18;32.40;51.40
7174;DHT22;3628;48.654;8.932;2023-06-26T10:25:46;32.40;52.30
7174;DHT22;3628;48.654;8.932;2023-06-26T10:28:15;32.70;53.10
7174;DHT22;3628;48.654;8.932;2023-06-26T10:30:44;32.70;53.00
7174;DHT22;3628;48.654;8.932;2023-06-26T10:33:11;32.70;54.50
7174;DHT22;3628;48.654;8.932;2023-06-26T10:35:44;32.70;54.70
7174;DHT22;3628;48.654;8.932;2023-06-26T10:38:10;32.70;54.80
7174;DHT22;3628;48.654;8.932;2023-06-26T10:40:46;32.70;56.00
7174;DHT22;3628;48.654;8.932;2023-06-26T10:43:15;32.70;56.50
7174;DHT22;3628;48.654;8.932;2023-06-26T10:45:49;32.70;56.20
7174;DHT22;3628;48.654;8.932;2023-06-26T10:48:20;32.90;56.20
7174;DHT22;3628;48.654;8.932;2023-06-26T10:50:49;32.80;56.40
7174;DHT22;3628;48.654;8.932;2023-06-26T10:53:25;32.60;56.50
7174;DHT22;3628;48.654;8.932;2023-06-26T10:55:59;32.50;56.90
7174;DHT22;3628;48.654;8.932;2023-06-26T10:58:40;32.20;56.60
7174;DHT22;3628;48.654;8.932;2023-06-26T11:03:39;32.00;57.00
7174;DHT22;3628;48.654;8.932;2023-06-26T11:06:28;32.40;57.80
7174;DHT22;3628;48.654;8.932;2023-06-26T11:09:01;32.90;57.10
7174;DHT22;3628;48.654;8.932;2023-06-26T11:14:25;33.10;54.60
7174;DHT22;3628;48.654;8.932;2023-06-26T11:16:51;33.20;55.40
7174;DHT22;3628;48.654;8.932;2023-06-26T11:19:18;32.80;55.30
7174;DHT22;3628;48.654;8.932;2023-06-26T11:21:44;32.60;55.40
7174;DHT22;3628;48.654;8.932;2023-06-26T11:24:12;32.60;55.70
7174;DHT22;3628;48.654;8.932;2023-06-26T11:26:38;32.80;55.50
7174;DHT22;3628;48.654;8.932;2023-06-26T11:29:04;33.00;55.70
7174;DHT22;3628;48.654;8.932;2023-06-26T11:31:34;33.30;55.20
7174;DHT22;3628;48.654;8.932;2023-06-26T11:34:02;33.30;55.40
7174;DHT22;3628;48.654;8.932;2023-06-26T11:36:30;33.10;55.20
7174;DHT22;3628;48.654;8.932;2023-06-26T11:38:57;32.80;56.00
7174;DHT22;3628;48.654;8.932;2023-06-26T11:41:25;32.60;56.50
7174;DHT22;3628;48.654;8.932;2023-06-26T11:43:52;32.70;57.10
7174;DHT22;3628;48.654;8.932;2023-06-26T11:46:21;32.60;57.30
7174;DHT22;3628;48.654;8.932;2023-06-26T11:48:47;32.60;57.30
7174;DHT22;3628;48.654;8.932;2023-06-26T11:51:13;32.60;57.40
7174;DHT22;3628;48.654;8.932;2023-06-26T11:53:43;32.80;57.10
7174;DHT22;3628;48.654;8.932;2023-06-26T11:56:10;32.70;57.30
7174;DHT22;3628;48.654;8.932;2023-06-26T11:58:36;32.90;57.50
7174;DHT22;3628;48.654;8.932;2023-06-26T12:01:02;32.80;57.20
7174;DHT22;3628;48.654;8.932;2023-06-26T12:03:29;33.10;57.00
7174;DHT22;3628;48.654;8.932;2023-06-26T12:05:55;33.00;57.00
7174;DHT22;3628;48.654;8.932;2023-06-26T12:08:21;32.90;57.40
7174;DHT22;3628;48.654;8.932;2023-06-26T12:10:47;33.10;57.20
7174;DHT22;3628;48.654;8.932;2023-06-26T12:13:12;33.00;57.60
7174;DHT22;3628;48.654;8.932;2023-06-26T12:15:38;33.00;58.00
7174;DHT22;3628;48.654;8.932;2023-06-26T12:18:10;32.80;58.10
7174;DHT22;3628;48.654;8.932;2023-06-26T12:20:40;33.10;57.60
7174;DHT22;3628;48.654;8.932;2023-06-26T12:23:11;33.40;56.90
7174;DHT22;3628;48.654;8.932;2023-06-26T12:25:37;33.30;57.30
7174;DHT22;3628;48.654;8.932;2023-06-26T12:28:03;33.20;57.50
7174;DHT22;3628;48.654;8.932;2023-06-26T12:30:29;33.00;57.80
7174;DHT22;3628;48.654;8.932;2023-06-26T12:32:54;33.00;58.20
7174;DHT22;3628;48.654;8.932;2023-06-26T12:35:20;33.10;58.20
7174;DHT22;3628;48.654;8.932;2023-06-26T12:37:46;32.80;58.20
7174;DHT22;3628;48.654;8.932;2023-06-26T12:40:19;32.80;58.50
7174;DHT22;3628;48.654;8.932;2023-06-26T12:42:47;32.60;58.30
7174;DHT22;3628;48.654;8.932;2023-06-26T12:45:13;32.50;59.00
7174;DHT22;3628;48.654;8.932;2023-06-26T12:47:39;32.60;58.80
7174;DHT22;3628;48.654;8.932;2023-06-26T12:50:07;33.00;58.90
7174;DHT22;3628;48.654;8.932;2023-06-26T12:52:33;33.10;57.90
7174;DHT22;3628;48.654;8.932;2023-06-26T12:54:58;32.80;58.60
7174;DHT22;3628;48.654;8.932;2023-06-26T12:57:24;32.90;58.90
7174;DHT22;3628;48.654;8.932;2023-06-26T12:59:50;32.90;58.90
7174;DHT22;3628;48.654;8.932;2023-06-26T13:02:16;32.90;58.30
7174;DHT22;3628;48.654;8.932;2023-06-26T13:04:41;32.80;58.60
7174;DHT22;3628;48.654;8.932;2023-06-26T13:07:08;32.90;58.30
7174;DHT22;3628;48.654;8.932;2023-06-26T13:09:34;32.90;58.30
7174;DHT22;3628;48.654;8.932;2023-06-26T13:12:00;32.90;57.80
7174;DHT22;3628;48.654;8.932;2023-06-26T13:14:26;32.80;58.20
7174;DHT22;3628;48.654;8.932;2023-06-26T13:16:52;32.70;58.10
7174;DHT22;3628;48.654;8.932;2023-06-26T13:19:18;32.50;58.10
7174;DHT22;3628;48.654;8.932;2023-06-26T13:21:43;32.20;58.70
7174;DHT22;3628;48.654;8.932;2023-06-26T13:24:09;32.10;58.70
7174;DHT22;3628;48.654;8.932;2023-06-26T13:26:34;32.50;58.60
7174;DHT22;3628;48.654;8.932;2023-06-26T13:29:00;32.40;58.10
7174;DHT22;3628;48.654;8.932;2023-06-26T13:31:26;32.40;57.60
7174;DHT22;3628;48.654;8.932;2023-06-26T13:33:52;32.30;57.70
7174;DHT22;3628;48.654;8.932;2023-06-26T13:36:18;31.90;57.80
7174;DHT22;3628;48.654;8.932;2023-06-26T13:38:44;31.90;58.50
7174;DHT22;3628;48.654;8.932;2023-06-26T13:41:10;31.80;58.10
7174;DHT22;3628;48.654;8.932;2023-06-26T13:43:36;32.20;58.10
7174;DHT22;3628;48.654;8.932;2023-06-26T13:46:01;32.60;57.60
7174;DHT22;3628;48.654;8.932;2023-06-26T13:48:29;32.70;56.80
7174;DHT22;3628;48.654;8.932;2023-06-26T13:50:54;32.70;55.60
7174;DHT22;3628;48.654;8.932;2023-06-26T13:53:21;32.60;55.50
7174;DHT22;3628;48.654;8.932;2023-06-26T13:55:47;32.60;55.80
7174;DHT22;3628;48.654;8.932;2023-06-26T13:58:12;32.40;55.60
7174;DHT22;3628;48.654;8.932;2023-06-26T14:00:39;32.20;55.80
7174;DHT22;3628;48.654;8.932;2023-06-26T14:03:05;32.40;55.30
7174;DHT22;3628;48.654;8.932;2023-06-26T14:05:35;32.40;54.60
7174;DHT22;3628;48.654;8.932;2023-06-26T14:08:05;32.30;54.40
7174;DHT22;3628;48.654;8.932;2023-06-26T14:10:31;32.10;54.90
7174;DHT22;3628;48.654;8.932;2023-06-26T14:12:58;32.50;54.90
7174;DHT22;3628;48.654;8.932;2023-06-26T14:15:24;32.50;54.90
7174;DHT22;3628;48.654;8.932;2023-06-26T14:17:49;32.40;54.80
7174;DHT22;3628;48.654;8.932;2023-06-26T14:20:15;32.30;54.50
7174;DHT22;3628;48.654;8.932;2023-06-26T14:22:42;31.90;55.10
7174;DHT22;3628;48.654;8.932;2023-06-26T14:25:10;31.50;55.40
7174;DHT22;3628;48.654;8.932;2023-06-26T14:27:36;31.70;55.40
7174;DHT22;3628;48.654;8.932;2023-06-26T14:30:03;32.00;55.40
7174;DHT22;3628;48.654;8.932;2023-06-26T14:32:29;32.00;54.30
7174;DHT22;3628;48.654;8.932;2023-06-26T14:34:55;32.10;54.20
7174;DHT22;3628;48.654;8.932;2023-06-26T14:37:21;31.90;53.80
7174;DHT22;3628;48.654;8.932;2023-06-26T14:39:46;31.90;53.90
7174;DHT22;3628;48.654;8.932;2023-06-26T14:42:12;31.80;54.00
7174;DHT22;3628;48.654;8.932;2023-06-26T14:44:38;31.70;54.20
7174;DHT22;3628;48.654;8.932;2023-06-26T14:47:03;31.50;53.60
7174;DHT22;3628;48.654;8.932;2023-06-26T14:49:29;31.80;54.10
7174;DHT22;3628;48.654;8.932;2023-06-26T14:51:55;31.40;54.30
7174;DHT22;3628;48.654;8.932;2023-06-26T14:54:21;31.30;55.00
7174;DHT22;3628;48.654;8.932;2023-06-26T14:56:46;31.30;54.80
7174;DHT22;3628;48.654;8.932;2023-06-26T14:59:12;31.40;55.10
7174;DHT22;3628;48.654;8.932;2023-06-26T15:01:38;31.40;55.40
7174;DHT22;3628;48.654;8.932;2023-06-26T15:04:05;31.30;55.20
7174;DHT22;3628;48.654;8.932;2023-06-26T15:06:30;31.00;55.30
7174;DHT22;3628;48.654;8.932;2023-06-26T15:08:56;30.70;55.50
7174;DHT22;3628;48.654;8.932;2023-06-26T15:11:21;30.40;56.20
7174;DHT22;3628;48.654;8.932;2023-06-26T15:13:47;30.30;57.40
7174;DHT22;3628;48.654;8.932;2023-06-26T15:16:13;30.50;56.50
7174;DHT22;3628;48.654;8.932;2023-06-26T15:18:38;30.60;56.40
7174;DHT22;3628;48.654;8.932;2023-06-26T15:21:04;30.80;56.80
7174;DHT22;3628;48.654;8.932;2023-06-26T15:23:29;31.00;56.60
7174;DHT22;3628;48.654;8.932;2023-06-26T15:25:55;31.00;55.80
7174;DHT22;3628;48.654;8.932;2023-06-26T15:28:21;31.00;55.70
7174;DHT22;3628;48.654;8.932;2023-06-26T15:30:46;30.80;55.80
7174;DHT22;3628;48.654;8.932;2023-06-26T15:33:13;30.90;55.60
7174;DHT22;3628;48.654;8.932;2023-06-26T15:35:39;30.40;55.70
7174;DHT22;3628;48.654;8.932;2023-06-26T15:38:04;30.50;56.10
7174;DHT22;3628;48.654;8.932;2023-06-26T15:40:30;30.50;56.50
7174;DHT22;3628;48.654;8.932;2023-06-26T15:42:56;30.70;56.10
7174;DHT22;3628;48.654;8.932;2023-06-26T15:45:22;30.50;56.00
7174;DHT22;3628;48.654;8.932;2023-06-26T15:47:49;30.20;56.20
7174;DHT22;3628;48.654;8.932;2023-06-26T15:50:16;30.10;56.60
7174;DHT22;3628;48.654;8.932;2023-06-26T15:52:42;30.20;56.70
7174;DHT22;3628;48.654;8.932;2023-06-26T15:55:07;30.40;56.70
7174;DHT22;3628;48.654;8.932;2023-06-26T15:57:35;30.00;56.30
7174;DHT22;3628;48.654;8.932;2023-06-26T16:00:02;29.80;56.70
7174;DHT22;3628;48.654;8.932;2023-06-26T16:02:28;29.60;57.20
7174;DHT22;3628;48.654;8.932;2023-06-26T16:04:54;29.40;57.40
7174;DHT22;3628;48.654;8.932;2023-06-26T16:07:20;29.40;57.20
7174;DHT22;3628;48.654;8.932;2023-06-26T16:09:45;29.20;57.90
7174;DHT22;3628;48.654;8.932;2023-06-26T16:12:11;28.90;57.90
7174;DHT22;3628;48.654;8.932;2023-06-26T16:14:36;28.80;58.30
7174;DHT22;3628;48.654;8.932;2023-06-26T16:17:02;28.80;58.70